Time;durP1;ratioP1;P1;durP2;ratioP2;P2;SDS_P1;SDS_P2;PMS_P1;PMS_P2;Temp;Humidity;BMP_temperature;BMP_pressure;BME280_temperature;BME280_humidity;BME280_pressure;Samples;Min_cycle;Max_cycle;Signal;HPM_P1;HPM_P2
2022/04/26 03:36:22;;;;;;;;;;;;;;;16.71;63.77;98543.38;2085430;28;19966;-45
2022/04/26 03:37:23;;;;;;;;;;;;;;;16.67;63.72;98542.13;2083485;28;19928;-48
2022/04/26 03:38:25;;;;;;;;;;;;;;;16.67;63.82;98548.31;2084640;28;20031;-46
2022/04/26 03:39:26;;;;;;;;;;;;;;;16.69;63.71;98551.63;2089956;28;19920;-47
2022/04/26 03:40:27;;;;;;;;;;;;;;;16.68;63.75;98544.59;2089084;28;20031;-47
2022/04/26 03:41:29;;;;;;;;;;;;;;;16.68;63.71;98541.91;2088376;28;20031;-46
2022/04/26 03:42:30;;;;;;;;;;;;;;;16.69;63.83;98550.81;2091194;28;20043;-46
2022/04/26 03:43:32;;;;;;;;;;;;;;;16.67;63.86;98540.28;2088517;28;19928;-49
2022/04/26 03:44:34;;;;;;;;;;;;;;;16.68;63.80;98549.94;2085322;28;19931;-47
2022/04/26 03:45:35;;;;;;;;;;;;;;;16.69;63.67;98543.59;2088243;28;19921;-46
2022/04/26 03:46:36;;;;;;;;;;;;;;;16.70;63.62;98544.41;2084596;28;19969;-50
2022/04/26 03:47:37;;;;;;;;;;;;;;;16.68;63.76;98547.28;2085903;28;19924;-48
2022/04/26 03:48:38;;;;;;;;;;;;;;;16.68;63.81;98543.78;2085713;28;19920;-47
2022/04/26 03:49:39;;;;;;;;;;;;;;;16.68;63.81;98544.59;2087083;28;19924;-50
2022/04/26 03:50:40;;;;;;;;;;;;;;;16.69;63.70;98551.63;2084330;28;19976;-48
2022/04/26 03:51:41;;;;;;;;;;;;;;;16.67;63.79;98548.31;2084406;28;20406;-51
2022/04/26 03:52:42;;;;;;;;;;;;;;;16.67;63.72;98547.50;2091426;28;20043;-49
2022/04/26 03:53:43;;;;;;;;;;;;;;;16.68;63.71;98558.00;2086724;28;19925;-49
2022/04/26 03:54:45;;;;;;;;;;;;;;;16.68;63.69;98557.16;2088719;28;19967;-47
2022/04/26 03:55:46;;;;;;;;;;;;;;;16.67;63.68;98552.84;2085302;28;19932;-47
2022/04/26 03:56:47;;;;;;;;;;;;;;;16.67;63.71;98558.19;2087655;28;19924;-47
2022/04/26 03:57:48;;;;;;;;;;;;;;;16.67;63.73;98560.88;2090223;28;19936;-48
2022/04/26 03:58:51;;;;;;;;;;;;;;;16.65;63.79;98553.03;2083703;28;21500;-47
2022/04/26 03:59:52;;;;;;;;;;;;;;;16.67;63.75;98559.03;2087189;28;19920;-49
2022/04/26 04:00:53;;;;;;;;;;;;;;;16.67;63.79;98559.03;2082076;28;19986;-49
2022/04/26 04:01:54;;;;;;;;;;;;;;;16.67;63.67;98558.19;2085255;28;20410;-46
2022/04/26 04:02:55;;;;;;;;;;;;;;;16.65;63.79;98558.38;2083344;28;19920;-49
2022/04/26 04:03:56;;;;;;;;;;;;;;;16.67;63.75;98564.38;2088155;28;19924;-46
2022/04/26 04:04:57;;;;;;;;;;;;;;;16.67;63.75;98559.03;2083115;28;20333;-48
2022/04/26 04:05:58;;;;;;;;;;;;;;;16.67;63.71;98561.69;2084797;28;20381;-46
2022/04/26 04:07:00;;;;;;;;;;;;;;;16.65;63.74;98561.06;2086153;28;19932;-48
2022/04/26 04:08:02;;;;;;;;;;;;;;;16.64;63.70;98564.75;2087609;28;19925;-48
2022/04/26 04:09:03;;;;;;;;;;;;;;;16.64;63.71;98563.94;2088355;28;19982;-50
2022/04/26 04:10:05;;;;;;;;;;;;;;;16.64;63.72;98567.44;2085679;28;20046;-47
2022/04/26 04:11:05;;;;;;;;;;;;;;;16.64;63.75;98563.94;2087160;28;20063;-49
2022/04/26 04:12:07;;;;;;;;;;;;;;;16.64;63.78;98570.13;2087974;28;19940;-49
2022/04/26 04:13:08;;;;;;;;;;;;;;;16.65;63.75;98565.59;2085754;28;19924;-50
2022/04/26 04:14:11;;;;;;;;;;;;;;;16.64;63.66;98563.94;2084773;28;20334;-50
2022/04/26 04:15:12;;;;;;;;;;;;;;;16.64;63.74;98567.44;2092714;28;20015;-47
2022/04/26 04:16:13;;;;;;;;;;;;;;;16.65;63.74;98566.41;2086069;28;19925;-46
2022/04/26 04:17:14;;;;;;;;;;;;;;;16.63;63.73;98578.34;2089237;28;20409;-50
2022/04/26 04:19:37;;;;;;;;;;;;;;;16.64;63.69;98570.13;2061263;28;19925;-44
2022/04/26 04:20:37;;;;;;;;;;;;;;;16.64;63.74;98575.47;2093392;28;19927;-48
2022/04/26 04:21:39;;;;;;;;;;;;;;;16.64;63.79;98570.13;2090877;28;19974;-46
2022/04/26 04:22:40;;;;;;;;;;;;;;;16.62;63.76;98577.50;2089050;28;19920;-49
2022/04/26 04:23:41;;;;;;;;;;;;;;;16.62;63.79;98576.69;2091336;28;19924;-47
2022/04/26 04:24:43;;;;;;;;;;;;;;;16.62;63.68;98574.00;2084808;28;20437;-49
2022/04/26 04:25:43;;;;;;;;;;;;;;;16.63;63.64;98573.81;2089963;28;19924;-46
2022/04/26 04:26:45;;;;;;;;;;;;;;;16.63;63.67;98573.81;2093312;28;19920;-47
2022/04/26 04:27:46;;;;;;;;;;;;;;;16.61;63.73;98575.88;2084634;28;19924;-46
2022/04/26 04:28:47;;;;;;;;;;;;;;;16.63;63.69;98572.97;2085332;28;19924;-46
2022/04/26 04:29:51;;;;;;;;;;;;;;;16.62;63.61;98574.81;2090303;28;19924;-48
2022/04/26 04:30:52;;;;;;;;;;;;;;;16.63;63.64;98575.66;2088798;28;19940;-49
2022/04/26 04:31:53;;;;;;;;;;;;;;;16.63;63.68;98573.81;2087536;28;20011;-50
2022/04/26 04:32:54;;;;;;;;;;;;;;;16.63;63.72;98578.34;2088610;28;20011;-47
2022/04/26 04:33:55;;;;;;;;;;;;;;;16.62;63.78;98585.53;2090305;28;19940;-46
2022/04/26 04:34:56;;;;;;;;;;;;;;;16.63;63.77;98583.69;2085796;28;19929;-47
2022/04/26 04:35:57;;;;;;;;;;;;;;;16.63;63.69;98583.69;2085213;28;20271;-47
2022/04/26 04:36:58;;;;;;;;;;;;;;;16.61;63.73;98585.75;2085974;28;19985;-47
2022/04/26 04:37:59;;;;;;;;;;;;;;;16.62;63.70;98590.06;2090447;28;19924;-47
2022/04/26 04:39:00;;;;;;;;;;;;;;;16.61;63.71;98589.25;2089385;28;19920;-48
2022/04/26 04:40:01;;;;;;;;;;;;;;;16.62;63.61;98585.53;2086153;28;19970;-47
2022/04/26 04:41:02;;;;;;;;;;;;;;;16.63;63.71;98584.53;2090110;28;19951;-46
2022/04/26 04:42:04;;;;;;;;;;;;;;;16.63;63.65;98587.22;2090792;28;20348;-47
2022/04/26 04:43:05;;;;;;;;;;;;;;;16.61;63.71;98591.09;2083198;28;20014;-46
2022/04/26 04:44:07;;;;;;;;;;;;;;;16.60;63.88;98584.91;2089701;28;20401;-45
2022/04/26 04:45:09;;;;;;;;;;;;;;;16.62;63.82;98592.75;2088646;28;19979;-47
2022/04/26 04:46:11;;;;;;;;;;;;;;;16.62;63.69;98590.06;2084485;28;19924;-46
2022/04/26 04:47:11;;;;;;;;;;;;;;;16.63;63.70;98589.03;2085869;28;20034;-47
2022/04/26 04:48:13;;;;;;;;;;;;;;;16.66;63.61;98594.88;2083910;28;19924;-46
2022/04/26 04:49:14;;;;;;;;;;;;;;;16.67;63.62;98591.16;2088249;28;19925;-46
2022/04/26 04:50:15;;;;;;;;;;;;;;;16.71;63.49;98592.41;2089915;28;19991;-47
2022/04/26 04:51:16;;;;;;;;;;;;;;;16.73;63.48;98593.06;2084670;28;20008;-46
2022/04/26 04:52:17;;;;;;;;;;;;;;;16.77;63.45;98592.69;2088211;28;20898;-47
2022/04/26 04:53:18;;;;;;;;;;;;;;;16.81;63.30;98596.66;2088065;28;20378;-46
2022/04/26 04:54:20;;;;;;;;;;;;;;;16.83;63.11;98594.63;2085873;28;20631;-46
2022/04/26 04:55:21;;;;;;;;;;;;;;;16.89;63.13;98599.22;2090411;28;19925;-47
2022/04/26 04:56:24;;;;;;;;;;;;;;;16.91;62.86;98595.31;2088473;28;19924;-47
2022/04/26 04:57:26;;;;;;;;;;;;;;;16.95;62.98;98595.75;2086549;28;20550;-46
2022/04/26 04:58:26;;;;;;;;;;;;;;;16.99;62.91;98599.69;2089396;28;20015;-47
2022/04/26 04:59:28;;;;;;;;;;;;;;;17.03;62.74;98600.97;2093040;28;19921;-46
2022/04/26 05:00:30;;;;;;;;;;;;;;;17.04;62.70;98602.63;2085910;28;19929;-46
2022/04/26 05:01:31;;;;;;;;;;;;;;;17.07;62.65;98607.59;2089988;28;19924;-46
2022/04/26 05:02:32;;;;;;;;;;;;;;;17.10;62.54;98606.38;2089833;28;19927;-46
2022/04/26 05:03:33;;;;;;;;;;;;;;;17.11;62.47;98600.00;2087713;28;19924;-47
2022/04/26 05:04:36;;;;;;;;;;;;;;;17.15;62.57;98601.25;2091677;28;20069;-50
2022/04/26 05:05:37;;;;;;;;;;;;;;;17.17;62.45;98605.41;2086089;28;20363;-46
2022/04/26 05:06:38;;;;;;;;;;;;;;;17.20;62.42;98602.34;2086653;28;19920;-46
2022/04/26 05:07:39;;;;;;;;;;;;;;;17.22;62.37;98598.63;2088559;28;19932;-48
2022/04/26 05:08:41;;;;;;;;;;;;;;;17.25;62.32;98604.44;2091695;28;20325;-46
2022/04/26 05:09:41;;;;;;;;;;;;;;;17.25;62.23;98603.63;2090824;28;19920;-47
2022/04/26 05:10:43;;;;;;;;;;;;;;;17.27;62.35;98606.91;2092725;28;20297;-47
2022/04/26 05:11:44;;;;;;;;;;;;;;;17.30;62.12;98607.38;2086474;28;19924;-48
2022/04/26 05:12:45;;;;;;;;;;;;;;;17.33;62.40;98608.84;2086247;28;20046;-48
2022/04/26 05:13:47;;;;;;;;;;;;;;;17.34;62.27;98602.44;2088353;28;19932;-47
2022/04/26 05:14:47;;;;;;;;;;;;;;;17.34;62.29;98600.56;2091336;28;19920;-48
2022/04/26 05:15:50;;;;;;;;;;;;;;;17.37;62.14;98604.72;2080867;28;19934;-47
2022/04/26 05:16:51;;;;;;;;;;;;;;;17.38;62.08;98603.69;2088733;28;20011;-50
2022/04/26 05:17:53;;;;;;;;;;;;;;;17.41;62.13;98605.97;2088324;28;19928;-47
2022/04/26 05:18:53;;;;;;;;;;;;;;;17.43;62.01;98606.63;2085078;28;19935;-47
2022/04/26 05:19:55;;;;;;;;;;;;;;;17.45;62.28;98603.75;2090865;28;19921;-50
2022/04/26 05:20:57;;;;;;;;;;;;;;;17.46;62.14;98602.72;2089616;28;19956;-47
2022/04/26 05:21:57;;;;;;;;;;;;;;;17.50;62.18;98606.69;2086064;28;19927;-48
2022/04/26 05:25:38;;;;;;;;;;;;;;;17.51;62.11;98598.41;2090451;28;20007;-49
2022/04/26 05:26:38;;;;;;;;;;;;;;;17.54;62.23;98610.59;2083865;28;19924;-47
2022/04/26 05:27:40;;;;;;;;;;;;;;;17.56;62.17;98609.38;2087076;28;19973;-47
2022/04/26 05:28:40;;;;;;;;;;;;;;;17.59;62.21;98610.84;2090582;28;19920;-45
2022/04/26 05:29:42;;;;;;;;;;;;;;;17.57;62.28;98615.56;2088422;28;19924;-48
2022/04/26 05:30:42;;;;;;;;;;;;;;;17.59;62.09;98611.66;2085579;28;19960;-47
2022/04/26 05:31:45;;;;;;;;;;;;;;;17.60;62.67;98613.31;2090515;28;19920;-49
2022/04/26 05:32:46;;;;;;;;;;;;;;;17.58;62.21;98614.56;2088244;28;19932;-49
2022/04/26 05:33:48;;;;;;;;;;;;;;;17.59;62.08;98611.66;2088389;28;19924;-46
2022/04/26 05:34:54;;;;;;;;;;;;;;;17.58;61.96;98607.34;2086093;28;19921;-47
2022/04/26 05:35:56;;;;;;;;;;;;;;;17.58;62.24;98609.19;2086867;28;20010;-46
2022/04/26 05:36:57;;;;;;;;;;;;;;;17.54;62.40;98615.97;2081878;28;19924;-47
2022/04/26 05:37:58;;;;;;;;;;;;;;;17.54;62.51;98603.38;2080533;28;19929;-48
2022/04/26 05:38:59;;;;;;;;;;;;;;;17.55;62.39;98607.75;2080455;28;19928;-47
2022/04/26 05:40:02;;;;;;;;;;;;;;;17.56;62.65;98616.59;2086961;28;19970;-50
2022/04/26 05:41:02;;;;;;;;;;;;;;;17.57;62.52;98613.72;2087748;28;20014;-49
2022/04/26 05:42:04;;;;;;;;;;;;;;;17.57;62.98;98608.34;2078915;28;20007;-47
2022/04/26 05:43:05;;;;;;;;;;;;;;;17.58;63.66;98614.56;2079065;28;19939;-48
2022/04/26 05:44:07;;;;;;;;;;;;;;;17.59;63.52;98617.03;2076718;28;19924;-50
2022/04/26 05:45:07;;;;;;;;;;;;;;;17.62;63.53;98611.28;2083706;28;20363;-47
2022/04/26 05:46:12;;;;;;;;;;;;;;;17.65;63.34;98610.06;2080971;28;19938;-47
2022/04/26 05:47:14;;;;;;;;;;;;;;;17.64;63.81;98613.75;2084865;28;19982;-46
2022/04/26 05:48:15;;;;;;;;;;;;;;;17.67;63.48;98613.38;2081763;28;19928;-46
2022/04/26 05:49:16;;;;;;;;;;;;;;;17.68;63.75;98614.19;2085573;28;20031;-46
2022/04/26 05:50:17;;;;;;;;;;;;;;;17.68;63.94;98614.19;2078289;28;19932;-46
2022/04/26 05:51:18;;;;;;;;;;;;;;;17.67;63.77;98612.53;2077820;28;19928;-49
2022/04/26 05:52:19;;;;;;;;;;;;;;;17.69;64.33;98615.84;2084091;28;19956;-47
2022/04/26 05:53:20;;;;;;;;;;;;;;;17.69;64.04;98615.84;2085604;28;20907;-48
2022/04/26 05:54:22;;;;;;;;;;;;;;;17.67;64.03;98617.91;2082682;28;19928;-46
2022/04/26 05:55:22;;;;;;;;;;;;;;;17.69;63.99;98623.88;2085500;28;19929;-49
2022/04/26 05:56:24;;;;;;;;;;;;;;;17.70;64.26;98617.50;2081404;28;20019;-49
2022/04/26 05:57:25;;;;;;;;;;;;;;;17.69;64.24;98616.69;2086855;28;19935;-46
2022/04/26 05:58:27;;;;;;;;;;;;;;;17.70;64.29;98625.56;2081148;28;19928;-48
2022/04/26 05:59:27;;;;;;;;;;;;;;;17.71;64.27;98619.16;2078265;28;20028;-48
2022/04/26 06:00:29;;;;;;;;;;;;;;;17.72;64.24;98621.66;2074568;28;19960;-48
2022/04/26 06:01:30;;;;;;;;;;;;;;;17.72;64.27;98615.44;2077677;28;19928;-47
2022/04/26 06:02:33;;;;;;;;;;;;;;;17.72;64.30;98604.72;2082974;28;19924;-46
2022/04/26 06:03:34;;;;;;;;;;;;;;;17.73;64.50;98627.84;2083083;28;19927;-48
2022/04/26 06:04:37;;;;;;;;;;;;;;;17.73;64.45;98627.84;2085225;28;19928;-49
2022/04/26 06:05:38;;;;;;;;;;;;;;;17.73;64.40;98617.94;2087259;28;20329;-49
2022/04/26 06:06:39;;;;;;;;;;;;;;;17.74;64.48;98618.75;2077163;28;19934;-47
2022/04/26 06:07:40;;;;;;;;;;;;;;;17.74;64.48;98618.75;2084134;28;19921;-48
2022/04/26 06:08:41;;;;;;;;;;;;;;;17.75;64.47;98620.44;2086171;28;19924;-48
2022/04/26 06:09:42;;;;;;;;;;;;;;;17.75;64.33;98621.25;2083733;28;19928;-47
2022/04/26 06:10:43;;;;;;;;;;;;;;;17.75;64.39;98617.75;2079854;28;20433;-48
2022/04/26 06:11:44;;;;;;;;;;;;;;;17.76;64.35;98620.22;2085421;28;19925;-48
2022/04/26 06:12:46;;;;;;;;;;;;;;;17.74;64.77;98619.59;2081483;28;19924;-46
2022/04/26 06:13:48;;;;;;;;;;;;;;;17.76;64.47;98619.41;2075622;28;20397;-49
2022/04/26 06:14:48;;;;;;;;;;;;;;;17.77;64.40;98621.03;2077259;28;20860;-47
2022/04/26 06:15:50;;;;;;;;;;;;;;;17.78;64.32;98625.41;2088569;28;19956;-50
2022/04/26 06:16:50;;;;;;;;;;;;;;;17.79;64.52;98624.41;2079400;28;20394;-46
2022/04/26 06:17:53;;;;;;;;;;;;;;;17.80;64.29;98629.56;2074178;28;19979;-46
2022/04/26 06:18:54;;;;;;;;;;;;;;;17.79;64.41;98627.06;2080958;28;20019;-47
2022/04/26 06:19:55;;;;;;;;;;;;;;;17.80;64.49;98624.22;2063385;28;20321;-50
2022/04/26 06:20:57;;;;;;;;;;;;;;;17.82;64.60;98621.31;2080069;28;19968;-47
2022/04/26 06:21:57;;;;;;;;;;;;;;;17.82;64.43;98621.31;2081810;28;19967;-49
2022/04/26 06:23:00;;;;;;;;;;;;;;;17.82;64.60;98621.31;2082577;28;20647;-49
2022/04/26 06:24:01;;;;;;;;;;;;;;;17.82;64.56;98621.31;2087001;28;19920;-51
2022/04/26 06:25:02;;;;;;;;;;;;;;;17.83;64.47;98620.31;2086620;28;19928;-48
2022/04/26 06:26:04;;;;;;;;;;;;;;;17.83;64.61;98628.34;2086400;28;20395;-50
2022/04/26 06:27:05;;;;;;;;;;;;;;;17.85;64.64;98626.28;2082258;28;20011;-46
2022/04/26 06:28:09;;;;;;;;;;;;;;;17.85;64.69;98620.91;2084174;28;19924;-49
2022/04/26 06:29:10;;;;;;;;;;;;;;;17.85;64.67;98623.59;2081769;28;19924;-51
2022/04/26 06:30:11;;;;;;;;;;;;;;;17.84;64.71;98621.94;2086486;28;20036;-47
2022/04/26 06:31:13;;;;;;;;;;;;;;;17.85;65.00;98621.72;2085875;28;19947;-48
2022/04/26 06:32:14;;;;;;;;;;;;;;;17.86;64.76;98623.41;2083168;28;19921;-46
2022/04/26 06:33:17;;;;;;;;;;;;;;;17.87;65.02;98624.22;2083835;28;20510;-49
2022/04/26 06:34:18;;;;;;;;;;;;;;;17.88;64.83;98625.88;2085993;28;20331;-47
2022/04/26 06:35:19;;;;;;;;;;;;;;;17.88;64.81;98617.81;2084507;28;19956;-48
2022/04/26 06:36:20;;;;;;;;;;;;;;;17.88;64.59;98615.13;2078101;28;19965;-49
2022/04/26 06:37:23;;;;;;;;;;;;;;;17.89;64.64;98622.19;2076707;28;22005;-47
2022/04/26 06:38:23;;;;;;;;;;;;;;;17.89;64.84;98619.50;2084749;28;20329;-47
2022/04/26 06:39:25;;;;;;;;;;;;;;;17.90;64.65;98623.00;2082723;28;19920;-52
2022/04/26 06:40:27;;;;;;;;;;;;;;;17.91;64.72;98620.09;2079420;28;20382;-47
2022/04/26 06:41:28;;;;;;;;;;;;;;;17.91;64.56;98620.09;2081086;28;19929;-51
2022/04/26 06:42:29;;;;;;;;;;;;;;;17.92;64.62;98621.78;2080437;28;19928;-49
2022/04/26 06:43:32;;;;;;;;;;;;;;;17.92;64.50;98621.78;2080311;28;19939;-47
2022/04/26 06:44:34;;;;;;;;;;;;;;;17.93;64.52;98622.59;2080647;28;19928;-47
2022/04/26 06:45:35;;;;;;;;;;;;;;;17.92;64.55;98624.47;2078791;28;20009;-48
2022/04/26 06:46:36;;;;;;;;;;;;;;;17.93;64.51;98627.97;2083532;28;19975;-46
2022/04/26 06:47:38;;;;;;;;;;;;;;;17.92;64.39;98621.78;2083341;28;19971;-47
2022/04/26 06:48:41;;;;;;;;;;;;;;;17.93;64.54;98628.78;2078422;28;20145;-44
2022/04/26 06:49:42;;;;;;;;;;;;;;;17.94;64.61;98625.09;2084679;28;20344;-43
2022/04/26 06:50:44;;;;;;;;;;;;;;;17.94;64.51;98627.78;2074450;28;19935;-46
2022/04/26 06:51:46;;;;;;;;;;;;;;;17.93;64.68;98620.75;2086234;28;20381;-44
2022/04/26 06:52:47;;;;;;;;;;;;;;;17.93;64.70;98618.06;2090411;28;19924;-45
2022/04/26 06:53:48;;;;;;;;;;;;;;;17.94;64.51;98625.09;2083159;28;19924;-47
2022/04/26 06:54:50;;;;;;;;;;;;;;;17.96;64.46;98625.72;2086020;28;20504;-44
2022/04/26 06:55:50;;;;;;;;;;;;;;;17.95;64.59;98621.38;2086403;28;19924;-45
2022/04/26 06:56:52;;;;;;;;;;;;;;;17.94;64.46;98619.75;2080169;28;19948;-43
2022/04/26 06:57:52;;;;;;;;;;;;;;;17.95;64.44;98623.25;2076024;28;19924;-47
2022/04/26 06:58:54;;;;;;;;;;;;;;;17.95;64.43;98632.13;2076949;28;19929;-44
2022/04/26 06:59:55;;;;;;;;;;;;;;;17.95;64.36;98626.75;2081081;28;19920;-44
2022/04/26 07:00:56;;;;;;;;;;;;;;;17.97;64.26;98623.84;2083222;28;19929;-46
2022/04/26 07:01:57;;;;;;;;;;;;;;;17.95;64.42;98624.06;2083373;28;19973;-47
2022/04/26 07:02:59;;;;;;;;;;;;;;;17.96;64.53;98631.06;2081813;28;19927;-44
2022/04/26 07:04:00;;;;;;;;;;;;;;;17.96;64.34;98622.19;2081877;28;19979;-44
2022/04/26 07:05:02;;;;;;;;;;;;;;;17.95;64.44;98626.75;2081127;28;20339;-53
2022/04/26 07:06:02;;;;;;;;;;;;;;;17.96;64.41;98628.41;2077863;28;19935;-47
2022/04/26 07:07:05;;;;;;;;;;;;;;;17.96;64.24;98624.88;2079717;28;19925;-48
2022/04/26 07:08:05;;;;;;;;;;;;;;;17.95;64.23;98624.06;2075969;28;19927;-46
2022/04/26 07:09:07;;;;;;;;;;;;;;;17.98;64.18;98622.84;2083322;28;19932;-45
2022/04/26 07:10:08;;;;;;;;;;;;;;;17.97;64.23;98624.69;2084539;28;20543;-49
2022/04/26 07:11:09;;;;;;;;;;;;;;;17.97;64.28;98619.34;2079878;28;19950;-54
2022/04/26 07:12:11;;;;;;;;;;;;;;;17.97;64.42;98626.53;2075844;28;19978;-52
2022/04/26 07:13:15;;;;;;;;;;;;;;;17.97;64.21;98630.06;2081188;28;19928;-48
2022/04/26 07:14:16;;;;;;;;;;;;;;;17.96;64.20;98623.03;2081521;28;20509;-49
2022/04/26 07:15:17;;;;;;;;;;;;;;;17.98;64.19;98628.22;2083457;28;20007;-50
2022/04/26 07:16:19;;;;;;;;;;;;;;;17.96;64.38;98625.72;2088237;28;19920;-47
2022/04/26 07:17:20;;;;;;;;;;;;;;;17.96;64.17;98625.72;2079405;28;19924;-51
2022/04/26 07:18:21;;;;;;;;;;;;;;;17.96;64.24;98627.56;2081925;28;19924;-51
2022/04/26 07:19:25;;;;;;;;;;;;;;;17.95;64.27;98621.38;2082859;28;20397;-46
2022/04/26 07:20:28;;;;;;;;;;;;;;;17.95;64.26;98620.56;2087713;28;20011;-46
2022/04/26 07:21:28;;;;;;;;;;;;;;;17.96;64.32;98630.25;2087888;28;19924;-48
2022/04/26 07:22:32;;;;;;;;;;;;;;;17.95;64.21;98628.59;2086676;28;19928;-51
2022/04/26 07:23:32;;;;;;;;;;;;;;;17.95;64.22;98625.94;2085909;28;19924;-51
2022/04/26 07:24:34;;;;;;;;;;;;;;;17.95;64.28;98626.75;2077133;28;19982;-50
2022/04/26 07:25:34;;;;;;;;;;;;;;;17.96;64.35;98627.56;2086729;28;20036;-45
2022/04/26 07:26:36;;;;;;;;;;;;;;;17.96;64.20;98628.41;2080828;28;20760;-52
2022/04/26 07:27:37;;;;;;;;;;;;;;;17.98;64.09;98633.56;2086070;28;19924;-49
2022/04/26 07:28:38;;;;;;;;;;;;;;;17.95;64.10;98626.75;2078741;28;20047;-49
2022/04/26 07:29:41;;;;;;;;;;;;;;;17.95;63.92;98625.94;2081518;28;19924;-47
2022/04/26 07:30:44;;;;;;;;;;;;;;;17.95;64.12;98628.59;2080891;28;19986;-51
2022/04/26 07:31:46;;;;;;;;;;;;;;;17.93;64.36;98626.13;2078945;28;19924;-52
2022/04/26 07:34:24;;;;;;;;;;;;;;;17.94;64.20;98626.94;2086349;28;19924;-48
2022/04/26 07:35:27;;;;;;;;;;;;;;;17.94;64.52;98625.09;2086267;28;19975;-51
2022/04/26 07:36:27;;;;;;;;;;;;;;;17.94;64.08;98629.63;2084590;28;19928;-50
2022/04/26 07:37:29;;;;;;;;;;;;;;;17.94;64.18;98624.25;2084495;28;20735;-51
2022/04/26 07:38:30;;;;;;;;;;;;;;;17.92;64.47;98629.00;2081322;28;19975;-45
2022/04/26 07:39:33;;;;;;;;;;;;;;;17.93;64.20;98625.28;2087212;28;19932;-49
2022/04/26 07:40:34;;;;;;;;;;;;;;;17.92;64.42;98627.16;2086642;28;20022;-50
2022/04/26 07:41:35;;;;;;;;;;;;;;;17.92;64.37;98626.31;2087435;28;19924;-50
2022/04/26 07:42:37;;;;;;;;;;;;;;;17.92;64.12;98632.50;2082530;28;20619;-52
2022/04/26 07:43:37;;;;;;;;;;;;;;;17.92;64.33;98629.84;2079827;28;20514;-47
2022/04/26 07:44:40;;;;;;;;;;;;;;;17.92;64.35;98626.31;2088181;28;20030;-50
2022/04/26 07:45:41;;;;;;;;;;;;;;;17.92;64.42;98626.31;2087676;28;19920;-49
2022/04/26 07:46:44;;;;;;;;;;;;;;;17.90;64.21;98631.88;2081957;28;19994;-52
2022/04/26 07:47:46;;;;;;;;;;;;;;;17.91;64.36;98621.97;2081054;28;19975;-53
2022/04/26 07:48:47;;;;;;;;;;;;;;;17.90;64.17;98629.19;2088518;28;20578;-50
2022/04/26 07:49:49;;;;;;;;;;;;;;;17.90;64.29;98629.19;2081605;28;20583;-50
2022/04/26 07:50:51;;;;;;;;;;;;;;;17.90;64.42;98631.06;2086825;28;19986;-51
2022/04/26 07:51:53;;;;;;;;;;;;;;;17.89;64.23;98627.56;2083695;28;19932;-51
2022/04/26 07:52:53;;;;;;;;;;;;;;;17.89;64.46;98632.09;2085482;28;20130;-49
2022/04/26 07:53:55;;;;;;;;;;;;;;;17.89;64.12;98629.41;2086291;28;20008;-52
2022/04/26 07:54:56;;;;;;;;;;;;;;;17.88;64.32;98631.25;2085501;28;20416;-49
2022/04/26 07:55:57;;;;;;;;;;;;;;;17.88;64.32;98631.25;2085703;28;19920;-48
2022/04/26 07:56:59;;;;;;;;;;;;;;;17.88;64.39;98633.94;2082873;28;19956;-47
2022/04/26 07:57:59;;;;;;;;;;;;;;;17.89;64.39;98632.91;2068291;28;19935;-52
2022/04/26 07:59:03;;;;;;;;;;;;;;;17.88;64.34;98636.59;2079034;28;19936;-51
2022/04/26 08:00:04;;;;;;;;;;;;;;;17.88;64.24;98630.41;2081296;28;19979;-49
2022/04/26 08:01:06;;;;;;;;;;;;;;;17.88;64.39;98630.41;2087127;28;19927;-48
2022/04/26 08:02:08;;;;;;;;;;;;;;;17.87;64.19;98632.28;2081841;28;20269;-53
2022/04/26 08:03:08;;;;;;;;;;;;;;;17.86;64.32;98633.31;2085614;28;20030;-52
2022/04/26 08:04:10;;;;;;;;;;;;;;;17.84;64.31;98638.88;2080534;28;20695;-55
2022/04/26 08:05:11;;;;;;;;;;;;;;;17.84;64.43;98630.00;2089215;28;19931;-51
2022/04/26 08:06:14;;;;;;;;;;;;;;;17.83;64.41;98629.19;2080583;28;19935;-51
2022/04/26 08:07:15;;;;;;;;;;;;;;;17.84;64.38;98633.50;2081917;28;19928;-48
2022/04/26 08:08:16;;;;;;;;;;;;;;;17.83;64.36;98636.41;2085394;28;19924;-48
2022/04/26 08:09:17;;;;;;;;;;;;;;;17.84;64.30;98635.38;2090516;28;20050;-49
2022/04/26 08:10:18;;;;;;;;;;;;;;;17.83;64.45;98631.84;2083697;28;20808;-48
2022/04/26 08:11:20;;;;;;;;;;;;;;;17.84;64.33;98638.03;2088151;28;19929;-51
2022/04/26 08:12:21;;;;;;;;;;;;;;;17.82;64.38;98643.59;2084850;28;20637;-47
2022/04/26 08:13:22;;;;;;;;;;;;;;;17.82;64.52;98648.13;2083636;28;19920;-50
2022/04/26 08:14:24;;;;;;;;;;;;;;;17.82;64.40;98646.28;2079653;28;20470;-48
2022/04/26 08:15:24;;;;;;;;;;;;;;;17.83;64.48;98649.81;2082243;28;19929;-50
2022/04/26 08:16:26;;;;;;;;;;;;;;;17.80;64.54;98656.41;2084508;28;20028;-51
2022/04/26 08:17:27;;;;;;;;;;;;;;;17.80;64.40;98647.50;2078845;28;19928;-49
2022/04/26 08:18:28;;;;;;;;;;;;;;;17.80;64.48;98647.50;2080549;28;20176;-47
2022/04/26 08:19:30;;;;;;;;;;;;;;;17.79;64.35;98659.28;2084312;28;24971;-50
2022/04/26 08:20:30;;;;;;;;;;;;;;;17.78;64.63;98650.41;2082673;28;19924;-49
2022/04/26 08:21:33;;;;;;;;;;;;;;;17.80;64.45;98650.19;2083751;28;20011;-51
2022/04/26 08:22:35;;;;;;;;;;;;;;;17.80;64.38;98645.66;2081275;28;20019;-51
2022/04/26 08:27:22;;;;;;;;;;;;;;;17.80;64.56;98653.72;2082229;28;19943;-48
2022/04/26 08:27:36;;;;;;;;;;;;;;;17.79;64.42;98648.53;2085018;28;19924;-48
2022/04/26 08:28:38;;;;;;;;;;;;;;;17.80;64.62;98653.72;2083945;28;19921;-51
2022/04/26 08:29:39;;;;;;;;;;;;;;;17.79;64.36;98648.53;2084982;28;19920;-48
2022/04/26 08:30:40;;;;;;;;;;;;;;;17.79;64.34;98653.91;2088208;28;19924;-50
2022/04/26 08:31:41;;;;;;;;;;;;;;;17.79;64.36;98653.91;2084321;28;19924;-52
2022/04/26 08:32:43;;;;;;;;;;;;;;;17.77;64.64;98642.50;2083556;28;19935;-49
2022/04/26 08:33:45;;;;;;;;;;;;;;;17.77;64.57;98650.56;2083572;28;19935;-49
2022/04/26 08:34:46;;;;;;;;;;;;;;;17.76;64.50;98655.09;2081894;28;19928;-50
2022/04/26 08:35:48;;;;;;;;;;;;;;;17.77;64.42;98655.91;2080860;28;20023;-49
2022/04/26 08:36:50;;;;;;;;;;;;;;;17.76;64.66;98654.28;2082602;28;20005;-51
2022/04/26 08:37:53;;;;;;;;;;;;;;;17.77;64.73;98658.59;2083044;28;20016;-51
2022/04/26 08:38:54;;;;;;;;;;;;;;;17.76;64.39;98656.94;2081353;28;20020;-52
2022/04/26 08:39:55;;;;;;;;;;;;;;;17.75;64.50;98658.00;2078818;28;19936;-48
2022/04/26 08:40:57;;;;;;;;;;;;;;;17.76;64.46;98663.13;2083943;28;20062;-51
2022/04/26 08:41:58;;;;;;;;;;;;;;;17.77;64.64;98661.28;2085806;28;19935;-50
2022/04/26 08:43:00;;;;;;;;;;;;;;;17.74;64.65;98657.13;2079169;28;19924;-48
2022/04/26 08:44:01;;;;;;;;;;;;;;;17.74;64.72;98659.81;2084248;28;19927;-52
2022/04/26 08:45:02;;;;;;;;;;;;;;;17.73;64.47;98658.19;2077337;28;19994;-50
2022/04/26 08:46:04;;;;;;;;;;;;;;;17.75;64.59;98664.19;2080786;28;20884;-51
2022/04/26 08:51:08;;;;;;;;;;;;;;;17.73;64.50;98658.19;2080350;28;19924;-47
2022/04/26 08:52:11;;;;;;;;;;;;;;;17.73;64.46;98658.19;2085749;28;19928;-44
2022/04/26 08:53:16;;;;;;;;;;;;;;;17.74;64.44;98653.63;2081133;28;19932;-53
2022/04/26 08:54:17;;;;;;;;;;;;;;;17.72;64.59;98655.69;2086975;28;20390;-48
2022/04/26 08:55:19;;;;;;;;;;;;;;;17.72;64.73;98653.00;2077064;28;19927;-51
2022/04/26 08:56:21;;;;;;;;;;;;;;;17.70;64.62;98655.88;2084516;28;19936;-47
2022/04/26 08:57:22;;;;;;;;;;;;;;;17.72;64.55;98655.69;2081800;28;23606;-51
2022/04/26 08:58:25;;;;;;;;;;;;;;;17.71;64.56;98656.72;2089150;28;19933;-49
2022/04/26 08:59:27;;;;;;;;;;;;;;;17.72;64.66;98658.34;2083446;28;20040;-51
2022/04/26 09:00:28;;;;;;;;;;;;;;;17.71;64.64;98656.72;2085436;28;20764;-47
2022/04/26 09:01:30;;;;;;;;;;;;;;;17.71;64.66;98657.53;2083983;28;19929;-48
2022/04/26 09:02:30;;;;;;;;;;;;;;;17.71;64.47;98659.38;2086393;28;19951;-48
2022/04/26 09:03:32;;;;;;;;;;;;;;;17.70;64.51;98658.56;2082692;28;19928;-53
2022/04/26 09:04:34;;;;;;;;;;;;;;;17.69;64.72;98661.44;2085573;28;20014;-47
2022/04/26 09:05:35;;;;;;;;;;;;;;;17.69;64.61;98664.13;2080972;28;20539;-48
2022/04/26 09:06:39;;;;;;;;;;;;;;;17.70;64.82;98657.75;2086421;28;19959;-52
2022/04/26 09:07:45;;;;;;;;;;;;;;;17.69;64.67;98658.75;2083822;28;19935;-50
2022/04/26 09:08:48;;;;;;;;;;;;;;;17.70;64.62;98660.44;2083096;28;19924;-50